createdAt,value
2022-09-17T00:01:25.072Z,79.30
2022-09-17T00:03:55.799Z,79.29
2022-09-17T00:06:24.857Z,78.92
2022-09-17T00:08:53.827Z,79.26
2022-09-17T00:11:23.965Z,79.11
2022-09-17T00:13:52.676Z,78.95
2022-09-17T00:16:31.429Z,78.91
2022-09-17T00:19:00.115Z,78.73
2022-09-17T00:21:27.717Z,78.76
2022-09-17T00:23:56.979Z,78.86
2022-09-17T00:26:24.600Z,79.04
2022-09-17T00:28:55.600Z,79.41
2022-09-17T00:31:23.628Z,79.53
2022-09-17T00:33:51.629Z,79.63
2022-09-17T00:36:20.639Z,79.42
2022-09-17T00:38:56.305Z,79.34
2022-09-17T00:41:25.543Z,79.50
2022-09-17T00:43:55.307Z,79.91
2022-09-17T00:46:31.680Z,79.73
2022-09-17T00:49:04.548Z,79.93
2022-09-17T00:51:37.371Z,79.63
2022-09-17T00:54:07.194Z,79.81
2022-09-17T00:56:38.415Z,79.65
2022-09-17T00:59:05.965Z,79.95
2022-09-17T01:01:33.613Z,79.84
2022-09-17T01:04:00.457Z,79.87
2022-09-17T01:06:33.605Z,79.91
2022-09-17T01:09:13.775Z,79.90
2022-09-17T01:11:54.023Z,80.22
2022-09-17T01:15:17.721Z,80.47
2022-09-17T01:17:59.205Z,80.37
2022-09-17T01:21:08.112Z,80.38
2022-09-17T01:24:05.731Z,80.29
2022-09-17T01:26:54.819Z,80.46
2022-09-17T01:29:40.147Z,80.67
2022-09-17T01:32:16.743Z,80.52
2022-09-17T01:35:01.366Z,80.79
2022-09-17T01:37:42.279Z,80.78
2022-09-17T01:40:15.597Z,80.70
2022-09-17T01:42:51.164Z,80.78
2022-09-17T01:45:42.273Z,80.81
2022-09-17T01:48:19.675Z,80.88
2022-09-17T01:50:58.090Z,81.34
2022-09-17T01:53:31.570Z,81.10
2022-09-17T01:56:01.853Z,81.30
2022-09-17T01:58:36.850Z,81.47
2022-09-17T02:01:07.028Z,81.81
2022-09-17T02:03:40.575Z,82.00
2022-09-17T02:06:13.839Z,82.25
2022-09-17T02:08:52.099Z,82.46
2022-09-17T02:11:19.844Z,82.61
2022-09-17T02:13:46.654Z,82.93
2022-09-17T02:16:20.930Z,82.97
2022-09-17T02:18:53.975Z,83.01
2022-09-17T02:21:29.575Z,83.22
2022-09-17T02:24:29.279Z,83.31
2022-09-17T02:27:03.170Z,83.54
2022-09-17T02:29:34.805Z,83.96
2022-09-17T02:32:01.972Z,84.08
2022-09-17T02:34:29.504Z,83.99
2022-09-17T02:36:59.605Z,84.29
2022-09-17T02:39:28.334Z,84.12
2022-09-17T02:42:21.966Z,84.46
2022-09-17T02:44:57.807Z,84.31
2022-09-17T02:47:52.350Z,84.46
2022-09-17T02:50:24.843Z,84.30
2022-09-17T02:53:09.491Z,84.49
2022-09-17T02:55:36.452Z,84.32
2022-09-17T02:58:41.743Z,84.67
2022-09-17T03:01:18.397Z,84.82
2022-09-17T03:03:47.452Z,84.81
2022-09-17T03:06:14.887Z,84.82
2022-09-17T03:08:42.663Z,84.99
2022-09-17T03:11:12.896Z,85.42
2022-09-17T03:13:40.229Z,85.61
2022-09-17T03:16:07.817Z,85.28
2022-09-17T03:18:35.145Z,85.33
2022-09-17T03:21:02.355Z,85.38
2022-09-17T03:23:29.205Z,85.86
2022-09-17T03:25:56.248Z,85.90
2022-09-17T03:28:23.426Z,85.64
2022-09-17T03:30:50.316Z,85.61
2022-09-17T03:33:17.535Z,85.90
2022-09-17T03:35:45.403Z,85.95
2022-09-17T03:38:13.139Z,86.03
2022-09-17T03:40:40.731Z,86.22
2022-09-17T03:43:08.275Z,86.36
2022-09-17T03:45:35.498Z,86.19
2022-09-17T03:48:02.345Z,86.24
2022-09-17T03:50:29.472Z,86.27
2022-09-17T03:52:56.320Z,86.19
2022-09-17T03:55:23.287Z,86.09
2022-09-17T03:57:51.345Z,86.31
2022-09-17T04:00:18.294Z,86.47
2022-09-17T04:02:45.342Z,86.57
2022-09-17T04:05:12.571Z,86.56
2022-09-17T04:07:41.119Z,86.52
2022-09-17T04:10:08.658Z,86.61
2022-09-17T04:12:35.981Z,86.82
2022-09-17T04:15:03.427Z,86.80
2022-09-17T04:17:30.288Z,87.18
2022-09-17T04:19:58.214Z,86.72
2022-09-17T04:22:26.064Z,86.90
2022-09-17T04:24:52.929Z,86.81
2022-09-17T04:27:20.062Z,86.85
2022-09-17T04:29:46.851Z,87.04
2022-09-17T04:32:13.860Z,87.14
2022-09-17T04:34:40.833Z,87.26
2022-09-17T04:37:07.886Z,87.34
2022-09-17T04:39:34.755Z,87.30
2022-09-17T04:42:02.109Z,87.21
2022-09-17T04:44:28.988Z,87.38
2022-09-17T04:46:56.005Z,87.20
2022-09-17T04:49:23.389Z,87.26
2022-09-17T04:51:50.239Z,86.99
2022-09-17T04:54:17.434Z,87.10
2022-09-17T04:56:44.510Z,86.96
2022-09-17T04:59:11.284Z,87.08
2022-09-17T05:01:38.146Z,87.14
2022-09-17T05:04:05.222Z,87.19
2022-09-17T05:06:32.175Z,86.97
2022-09-17T05:08:59.174Z,86.99
2022-09-17T05:11:26.462Z,86.69
2022-09-17T05:13:53.447Z,86.77
2022-09-17T05:16:20.557Z,86.78
2022-09-17T05:18:49.565Z,86.75
2022-09-17T05:21:16.479Z,86.45
2022-09-17T05:23:43.250Z,86.17
2022-09-17T05:26:10.602Z,85.89
2022-09-17T05:28:37.594Z,85.83
2022-09-17T05:31:04.497Z,85.62
2022-09-17T05:33:32.090Z,85.18
2022-09-17T05:35:59.946Z,84.48
2022-09-17T05:38:26.858Z,84.19
2022-09-17T05:40:54.010Z,83.57
2022-09-17T05:43:21.133Z,83.37
2022-09-17T05:45:48.255Z,82.13
2022-09-17T05:48:15.671Z,81.61
2022-09-17T05:50:42.887Z,80.89
2022-09-17T05:53:13.925Z,80.80
2022-09-17T05:55:42.342Z,80.76
2022-09-17T05:58:14.380Z,80.75
2022-09-17T06:00:41.862Z,80.04
2022-09-17T06:03:11.063Z,79.54
2022-09-17T06:05:38.129Z,79.26
2022-09-17T06:08:05.797Z,78.51
2022-09-17T06:10:36.586Z,77.63
2022-09-17T06:13:03.539Z,76.73
2022-09-17T06:15:30.917Z,76.47
2022-09-17T06:17:58.028Z,76.40
2022-09-17T06:20:24.981Z,74.64
2022-09-17T06:22:57.510Z,75.31
2022-09-17T06:25:26.625Z,75.12
2022-09-17T06:27:53.616Z,74.19
2022-09-17T06:30:20.452Z,73.94
2022-09-17T06:32:47.489Z,73.58
2022-09-17T06:35:14.426Z,73.23
2022-09-17T06:37:41.344Z,73.66
2022-09-17T06:40:09.106Z,72.19
2022-09-17T06:42:36.065Z,72.15
2022-09-17T06:45:08.122Z,71.68
2022-09-17T06:47:37.385Z,71.17
2022-09-17T06:50:04.422Z,71.47
2022-09-17T06:52:31.180Z,70.33
2022-09-17T06:54:58.187Z,70.22
2022-09-17T06:57:24.954Z,70.20
2022-09-17T06:59:52.069Z,70.28
2022-09-17T07:02:19.187Z,69.64
2022-09-17T07:04:46.078Z,69.03
2022-09-17T07:07:12.929Z,68.22
2022-09-17T07:09:39.985Z,68.12
2022-09-17T07:12:08.223Z,68.71
2022-09-17T07:14:35.307Z,68.22
2022-09-17T07:17:03.482Z,67.98
2022-09-17T07:19:30.616Z,67.42
2022-09-17T07:21:57.450Z,67.95
2022-09-17T07:24:24.513Z,68.45
2022-09-17T07:26:51.774Z,69.08
2022-09-17T07:29:18.834Z,69.61
2022-09-17T07:31:46.151Z,69.92
2022-09-17T07:34:13.147Z,69.83
2022-09-17T07:36:39.925Z,70.15
2022-09-17T07:39:07.128Z,69.96
2022-09-17T07:41:34.780Z,70.57
2022-09-17T07:44:02.631Z,71.07
2022-09-17T07:46:30.228Z,71.30
2022-09-17T07:48:57.422Z,70.54
2022-09-17T07:51:27.830Z,70.90
2022-09-17T07:53:56.530Z,71.17
2022-09-17T07:56:24.456Z,71.24
2022-09-17T07:58:51.866Z,71.54
2022-09-17T08:01:21.231Z,71.68
2022-09-17T08:03:50.604Z,71.75
2022-09-17T08:06:28.499Z,71.59
2022-09-17T08:08:57.757Z,71.79
2022-09-17T08:11:51.816Z,71.48
2022-09-17T08:14:15.710Z,71.85
2022-09-17T08:16:43.144Z,72.03
2022-09-17T08:19:12.597Z,71.99
2022-09-17T08:21:39.699Z,72.08
2022-09-17T08:24:06.778Z,72.69
2022-09-17T08:26:33.676Z,73.01
2022-09-17T08:29:00.742Z,73.19
2022-09-17T08:31:30.264Z,73.69
2022-09-17T08:33:57.239Z,74.44
2022-09-17T08:36:26.179Z,74.92
2022-09-17T08:38:55.095Z,75.17
2022-09-17T08:41:40.140Z,75.57
2022-09-17T08:44:20.208Z,75.25
2022-09-17T08:47:10.030Z,74.75
2022-09-17T08:49:47.779Z,74.55
2022-09-17T08:52:30.126Z,74.06
2022-09-17T08:55:11.262Z,73.78
2022-09-17T08:58:02.293Z,73.03
2022-09-17T09:00:39.044Z,73.08
2022-09-17T09:03:37.310Z,72.88
2022-09-17T09:06:10.510Z,72.43
2022-09-17T09:08:54.013Z,71.58
2022-09-17T09:11:27.627Z,70.39
2022-09-17T09:14:40.913Z,70.52
2022-09-17T09:17:10.936Z,70.08
2022-09-17T09:19:44.240Z,70.49
2022-09-17T09:22:14.099Z,70.70
2022-09-17T09:24:50.725Z,70.79
2022-09-17T09:27:21.737Z,71.65
2022-09-17T09:30:04.667Z,71.51
2022-09-17T09:32:46.654Z,71.37
2022-09-17T09:35:18.045Z,70.69
2022-09-17T09:38:06.511Z,70.32
2022-09-17T09:40:37.962Z,69.44
2022-09-17T09:43:22.642Z,69.91
2022-09-17T09:45:58.526Z,70.21
2022-09-17T09:48:45.314Z,70.12
2022-09-17T09:51:28.943Z,69.71
2022-09-17T09:54:31.254Z,68.88
2022-09-17T09:57:04.069Z,69.02
2022-09-17T09:59:31.133Z,69.11
2022-09-17T10:01:58.026Z,68.56
2022-09-17T10:04:29.403Z,68.28
2022-09-17T10:07:07.232Z,68.84
2022-09-17T10:09:41.545Z,68.86
2022-09-17T10:12:08.521Z,67.38
2022-09-17T10:14:37.845Z,67.73
2022-09-17T10:17:30.771Z,68.26
2022-09-17T10:20:12.085Z,68.50
2022-09-17T10:22:41.124Z,68.34
2022-09-17T10:25:32.213Z,66.79
2022-09-17T10:28:02.828Z,67.33
2022-09-17T10:30:31.046Z,66.93
2022-09-17T10:33:22.359Z,67.17
2022-09-17T10:36:15.791Z,71.81
2022-09-17T10:38:46.395Z,75.11
2022-09-17T10:41:21.709Z,77.65
2022-09-17T10:43:50.005Z,79.81
2022-09-17T10:46:27.752Z,80.46
2022-09-17T10:49:12.122Z,81.48
2022-09-17T10:51:39.507Z,81.60
2022-09-17T10:54:32.625Z,81.49
2022-09-17T10:57:01.490Z,81.24
2022-09-17T10:59:46.537Z,81.04
2022-09-17T11:02:29.982Z,81.00
2022-09-17T11:05:11.667Z,81.09
2022-09-17T11:07:38.555Z,81.98
2022-09-17T11:10:37.633Z,82.82
2022-09-17T11:13:34.889Z,84.04
2022-09-17T11:16:14.974Z,85.37
2022-09-17T11:18:59.363Z,85.28
2022-09-17T11:21:35.930Z,83.98
2022-09-17T11:24:24.662Z,83.97
2022-09-17T11:27:28.676Z,81.74
2022-09-17T11:30:09.123Z,81.86
2022-09-17T11:33:00.361Z,81.93
2022-09-17T11:35:32.990Z,82.91
2022-09-17T11:38:25.042Z,82.07
2022-09-17T11:41:19.403Z,82.27
2022-09-17T11:43:53.489Z,82.20
2022-09-17T11:46:29.747Z,81.66
2022-09-17T11:49:05.270Z,81.00
2022-09-17T11:51:48.282Z,80.34
2022-09-17T11:54:40.601Z,79.32
2022-09-17T11:57:14.067Z,75.37
2022-09-17T11:59:51.518Z,73.81
2022-09-17T12:02:43.700Z,72.71
2022-09-17T12:05:25.113Z,71.36
2022-09-17T12:08:14.552Z,72.09
2022-09-17T12:10:48.139Z,71.65
2022-09-17T12:13:30.672Z,71.53
2022-09-17T12:16:10.881Z,70.18
2022-09-17T12:18:51.416Z,68.66
2022-09-17T12:21:27.014Z,69.28
2022-09-17T12:24:10.054Z,69.45
2022-09-17T12:26:57.258Z,68.02
2022-09-17T12:29:59.572Z,68.68
2022-09-17T12:32:41.834Z,68.79
2022-09-17T12:35:20.814Z,66.12
2022-09-17T12:38:36.082Z,67.26
2022-09-17T12:41:24.786Z,67.72
2022-09-17T12:44:13.522Z,68.23
2022-09-17T12:46:59.263Z,68.23
2022-09-17T12:49:46.626Z,68.45
2022-09-17T12:52:27.443Z,68.64
2022-09-17T12:55:27.485Z,68.66
2022-09-17T12:58:00.631Z,68.32
2022-09-17T13:00:37.552Z,68.74
2022-09-17T13:03:08.252Z,69.35
2022-09-17T13:06:06.186Z,69.06
2022-09-17T13:09:21.727Z,69.54
2022-09-17T13:12:08.259Z,69.48
2022-09-17T13:14:52.036Z,70.02
2022-09-17T13:17:28.584Z,70.48
2022-09-17T13:20:17.127Z,71.00
2022-09-17T13:22:49.301Z,71.18
2022-09-17T13:25:19.248Z,71.58
2022-09-17T13:27:48.628Z,71.76
2022-09-17T13:30:20.822Z,71.67
2022-09-17T13:32:50.054Z,72.04
2022-09-17T13:35:17.106Z,72.29
2022-09-17T13:37:53.839Z,71.77
2022-09-17T13:40:28.512Z,72.04
2022-09-17T13:43:04.610Z,71.43
2022-09-17T13:45:34.044Z,69.57
2022-09-17T13:48:08.095Z,69.19
2022-09-17T13:50:38.045Z,67.77
2022-09-17T13:53:17.020Z,68.00
2022-09-17T13:55:50.562Z,69.05
2022-09-17T13:58:20.722Z,70.11
2022-09-17T14:01:11.881Z,70.94
2022-09-17T14:03:44.229Z,70.81
2022-09-17T14:06:11.576Z,71.34
2022-09-17T14:08:44.672Z,71.85
2022-09-17T14:11:27.882Z,72.38
2022-09-17T14:14:04.365Z,71.99
2022-09-17T14:16:34.286Z,72.52
2022-09-17T14:19:03.485Z,73.01
2022-09-17T14:21:34.900Z,72.86
2022-09-17T14:24:18.972Z,72.91
2022-09-17T14:26:55.540Z,72.92
2022-09-17T14:29:49.713Z,72.86
2022-09-17T14:32:20.989Z,72.79
2022-09-17T14:34:49.754Z,72.60
2022-09-17T14:37:21.839Z,72.89
2022-09-17T14:39:50.042Z,72.80
2022-09-17T14:42:22.672Z,73.16
2022-09-17T14:44:59.261Z,73.15
2022-09-17T14:47:27.061Z,73.38
2022-09-17T14:49:55.316Z,73.31
2022-09-17T14:52:28.405Z,73.21
2022-09-17T14:55:20.334Z,72.65
2022-09-17T14:57:52.292Z,72.80
2022-09-17T15:00:25.884Z,72.58
2022-09-17T15:02:56.282Z,72.31
2022-09-17T15:05:27.216Z,71.12
2022-09-17T15:08:15.471Z,70.78
2022-09-17T15:10:55.283Z,70.53
2022-09-17T15:13:35.866Z,69.90
2022-09-17T15:16:07.785Z,69.01
2022-09-17T15:18:47.385Z,68.05
2022-09-17T15:21:33.467Z,68.51
2022-09-17T15:24:10.916Z,69.03
2022-09-17T15:26:41.534Z,68.88
2022-09-17T15:29:12.751Z,69.11
2022-09-17T15:31:39.858Z,69.61
2022-09-17T15:34:09.589Z,69.83
2022-09-17T15:36:36.612Z,70.77
2022-09-17T15:39:31.010Z,70.78
2022-09-17T15:41:58.023Z,71.99
2022-09-17T15:44:31.211Z,71.79
2022-09-17T15:47:39.294Z,71.66
2022-09-17T15:50:49.447Z,72.37
2022-09-17T15:53:22.291Z,72.23
2022-09-17T15:56:16.490Z,72.35
2022-09-17T15:58:46.133Z,72.63
2022-09-17T16:01:16.347Z,73.28
2022-09-17T16:03:44.643Z,73.25
2022-09-17T16:06:25.405Z,73.33
2022-09-17T16:09:03.802Z,73.57
2022-09-17T16:11:31.950Z,73.80
2022-09-17T16:14:01.113Z,73.92
2022-09-17T16:16:37.805Z,74.28
2022-09-17T16:19:06.735Z,74.58
2022-09-17T16:21:34.206Z,74.73
2022-09-17T16:24:01.163Z,74.37
2022-09-17T16:26:32.267Z,74.98
2022-09-17T16:29:04.987Z,74.76
2022-09-17T16:31:51.766Z,75.28
2022-09-17T16:34:19.020Z,75.50
2022-09-17T16:36:45.842Z,75.79
2022-09-17T16:39:12.696Z,76.67
2022-09-17T16:41:39.750Z,76.69
2022-09-17T16:44:06.702Z,76.99
2022-09-17T16:46:33.597Z,77.15
2022-09-17T16:49:00.816Z,78.17
2022-09-17T16:51:27.782Z,78.42
2022-09-17T16:53:57.680Z,78.93
2022-09-17T16:56:24.748Z,79.44
2022-09-17T16:58:55.873Z,79.98
2022-09-17T17:01:23.158Z,80.08
2022-09-17T17:03:52.159Z,79.92
2022-09-17T17:06:20.451Z,80.23
2022-09-17T17:08:48.526Z,80.63
2022-09-17T17:11:16.092Z,80.70
2022-09-17T17:13:43.443Z,80.84
2022-09-17T17:16:13.000Z,81.22
2022-09-17T17:18:44.140Z,81.45
2022-09-17T17:21:13.837Z,81.26
2022-09-17T17:23:43.559Z,81.22
2022-09-17T17:26:10.635Z,81.45
2022-09-17T17:28:37.893Z,81.53
2022-09-17T17:31:05.719Z,81.62
2022-09-17T17:33:33.013Z,82.02
2022-09-17T17:36:06.687Z,82.26
2022-09-17T17:38:35.321Z,82.36
2022-09-17T17:41:04.796Z,82.56
2022-09-17T17:43:31.658Z,82.80
2022-09-17T17:45:58.768Z,82.77
2022-09-17T17:48:25.781Z,82.84
2022-09-17T17:50:56.578Z,82.88
2022-09-17T17:53:24.683Z,83.35
2022-09-17T17:55:57.704Z,83.75
2022-09-17T17:58:25.185Z,83.82
2022-09-17T18:00:52.509Z,84.15
2022-09-17T18:03:20.193Z,84.32
2022-09-17T18:05:47.016Z,84.69
2022-09-17T18:08:14.182Z,84.81
2022-09-17T18:10:41.166Z,85.15
2022-09-17T18:13:08.080Z,85.50
2022-09-17T18:15:35.111Z,85.81
2022-09-17T18:18:01.979Z,85.91
2022-09-17T18:20:29.198Z,86.25
2022-09-17T18:22:56.393Z,86.66
2022-09-17T18:25:23.491Z,86.74
2022-09-17T18:27:50.442Z,87.01
2022-09-17T18:30:17.689Z,87.15
2022-09-17T18:32:48.422Z,87.09
2022-09-17T18:35:19.974Z,87.08
2022-09-17T18:37:47.153Z,87.44
2022-09-17T18:40:14.182Z,87.65
2022-09-17T18:42:41.477Z,87.82
2022-09-17T18:45:09.125Z,88.01
2022-09-17T18:47:35.957Z,88.48
2022-09-17T18:50:03.139Z,88.59
2022-09-17T18:52:30.444Z,88.91
2022-09-17T18:54:57.199Z,88.91
2022-09-17T18:57:24.615Z,88.97
2022-09-17T18:59:52.079Z,89.02
2022-09-17T19:02:18.950Z,89.29
2022-09-17T19:04:49.083Z,89.46
2022-09-17T19:07:16.277Z,89.37
2022-09-17T19:09:43.391Z,89.80
2022-09-17T19:12:10.384Z,89.88
2022-09-17T19:14:37.481Z,90.04
2022-09-17T19:17:04.447Z,89.99
2022-09-17T19:19:31.344Z,90.37
2022-09-17T19:21:58.386Z,90.29
2022-09-17T19:24:25.459Z,90.33
2022-09-17T19:26:52.614Z,90.56
2022-09-17T19:29:19.757Z,90.37
2022-09-17T19:31:46.971Z,90.54
2022-09-17T19:34:14.000Z,90.54
2022-09-17T19:36:41.149Z,90.43
2022-09-17T19:39:08.111Z,90.31
2022-09-17T19:41:53.506Z,90.27
2022-09-17T19:44:20.733Z,90.06
2022-09-17T19:46:50.438Z,90.17
2022-09-17T19:49:17.888Z,90.19
2022-09-17T19:51:45.551Z,90.28
2022-09-17T19:54:12.486Z,90.28
2022-09-17T19:56:39.892Z,90.31
2022-09-17T19:59:07.308Z,90.24
2022-09-17T20:01:35.179Z,90.35
2022-09-17T20:04:02.425Z,90.32
2022-09-17T20:06:33.718Z,90.37
2022-09-17T20:09:19.821Z,90.38
2022-09-17T20:11:46.847Z,90.51
2022-09-17T20:14:13.769Z,90.56
2022-09-17T20:16:40.802Z,90.67
2022-09-17T20:19:14.986Z,90.85
2022-09-17T20:21:42.477Z,91.23
2022-09-17T20:24:09.899Z,91.29
2022-09-17T20:26:37.209Z,91.47
2022-09-17T20:29:05.045Z,91.60
2022-09-17T20:31:33.480Z,91.89
2022-09-17T20:34:03.127Z,92.15
2022-09-17T20:36:33.587Z,92.22
2022-09-17T20:39:21.865Z,92.36
2022-09-17T20:41:47.690Z,92.52
2022-09-17T20:44:14.721Z,92.50
2022-09-17T20:46:41.759Z,92.65
2022-09-17T20:49:08.881Z,92.81
2022-09-17T20:51:35.991Z,92.81
2022-09-17T20:54:03.964Z,93.18
2022-09-17T20:56:33.432Z,93.16
2022-09-17T20:59:17.856Z,93.29
2022-09-17T21:01:47.703Z,93.37
2022-09-17T21:04:20.058Z,93.41
2022-09-17T21:06:48.485Z,93.45
2022-09-17T21:09:16.109Z,93.50
2022-09-17T21:11:44.795Z,93.66
2022-09-17T21:14:12.428Z,93.45
2022-09-17T21:16:39.444Z,93.56
2022-09-17T21:19:07.976Z,93.48
2022-09-17T21:21:36.365Z,93.67
2022-09-17T21:24:05.577Z,93.60
2022-09-17T21:26:33.943Z,93.75
2022-09-17T21:29:02.090Z,93.78
2022-09-17T21:31:33.831Z,93.70
2022-09-17T21:34:02.209Z,93.73
2022-09-17T21:36:31.338Z,93.63
2022-09-17T21:39:18.947Z,93.75
2022-09-17T21:41:48.183Z,93.61
2022-09-17T21:44:15.854Z,93.70
2022-09-17T21:46:43.311Z,93.87
2022-09-17T21:49:11.539Z,93.87
2022-09-17T21:51:41.286Z,94.03
2022-09-17T21:54:13.463Z,94.18
2022-09-17T21:56:40.601Z,94.29
2022-09-17T21:59:12.594Z,94.30
2022-09-17T22:01:43.576Z,94.22
2022-09-17T22:04:13.242Z,94.30
2022-09-17T22:06:42.110Z,94.13
2022-09-17T22:09:21.494Z,93.73
2022-09-17T22:11:48.797Z,93.89
2022-09-17T22:14:19.706Z,93.97
2022-09-17T22:16:50.519Z,94.04
2022-09-17T22:19:19.737Z,94.01
2022-09-17T22:21:51.133Z,93.94
2022-09-17T22:24:19.767Z,93.97
2022-09-17T22:26:54.090Z,94.09
2022-09-17T22:29:24.754Z,93.89
2022-09-17T22:31:51.748Z,93.93
2022-09-17T22:34:21.845Z,93.77
2022-09-17T22:36:49.396Z,93.95
2022-09-17T22:39:18.897Z,93.89
2022-09-17T22:41:46.275Z,93.93
2022-09-17T22:44:17.623Z,93.82
2022-09-17T22:46:46.860Z,93.95
2022-09-17T22:49:14.337Z,93.98
2022-09-17T22:51:42.196Z,93.95
2022-09-17T22:54:13.391Z,94.03
2022-09-17T22:56:40.903Z,94.13
2022-09-17T22:59:08.062Z,94.05
2022-09-17T23:01:36.500Z,93.95
2022-09-17T23:04:04.406Z,93.90
2022-09-17T23:06:34.169Z,93.95
2022-09-17T23:09:01.272Z,93.97
2022-09-17T23:11:31.087Z,93.56
2022-09-17T23:14:02.185Z,93.63
2022-09-17T23:16:37.707Z,93.43
2022-09-17T23:19:05.552Z,93.08
2022-09-17T23:21:33.200Z,93.12
2022-09-17T23:24:00.122Z,93.15
2022-09-17T23:26:27.751Z,93.17
2022-09-17T23:28:54.906Z,93.38
2022-09-17T23:31:23.183Z,93.12
2022-09-17T23:33:50.965Z,92.96
2022-09-17T23:36:27.014Z,93.13
2022-09-17T23:38:55.529Z,93.05
2022-09-17T23:41:25.567Z,92.85
2022-09-17T23:43:55.098Z,92.62
2022-09-17T23:46:23.363Z,92.80
2022-09-17T23:48:53.720Z,92.69
2022-09-17T23:51:22.162Z,92.58
2022-09-17T23:53:49.530Z,92.81
2022-09-17T23:56:19.501Z,92.85
2022-09-17T23:58:46.336Z,92.73
